Time;durP1;ratioP1;P1;durP2;ratioP2;P2;SDS_P1;SDS_P2;PMS_P1;PMS_P2;Temp;Humidity;BMP_temperature;BMP_pressure;BME280_temperature;BME280_humidity;BME280_pressure;Samples;Min_cycle;Max_cycle;Signal;HPM_P1;HPM_P2
2022/03/28 00:02:03;;;;;;;14.60;7.25;;;;;;;10.96;100.00;101246.28;4919329;29;20269;-80
2022/03/28 00:04:31;;;;;;;14.20;7.35;;;;;;;10.96;100.00;101262.19;4918287;29;20222;-82
2022/03/28 00:07:00;;;;;;;11.02;6.15;;;;;;;10.88;100.00;101262.91;4919634;29;20226;-81
2022/03/28 00:09:28;;;;;;;7.40;5.28;;;;;;;10.72;100.00;101263.44;4916494;29;20239;-81
2022/03/28 00:12:22;;;;;;;11.38;7.93;;;;;;;10.63;100.00;101265.00;5110939;27;20580;-80
2022/03/28 00:14:50;;;;;;;20.30;7.85;;;;;;;10.56;100.00;101259.56;5091376;28;20229;-80
2022/03/28 00:17:18;;;;;;;25.88;8.20;;;10.80;99.90;;;10.54;100.00;101268.34;5088990;28;20201;-80
2022/03/28 00:19:47;;;;;;;20.63;5.70;;;;;;;10.38;100.00;101264.41;5067364;28;20201;-80
2022/03/28 00:22:15;;;;;;;9.63;3.25;;;;;;;10.25;100.00;101257.94;5088684;28;20198;-80
2022/03/28 00:24:43;;;;;;;10.90;4.22;;;;;;;10.17;100.00;101263.88;5086298;28;20221;-79
2022/03/28 00:27:11;;;;;;;29.80;7.95;;;10.50;99.90;;;10.08;100.00;101266.31;5089737;28;20213;-79
2022/03/28 00:29:39;;;;;;;12.15;3.88;;;10.40;99.90;;;10.07;100.00;101278.63;5083097;28;20227;-80
2022/03/28 00:32:07;;;;;;;15.23;4.03;;;10.30;99.90;;;9.79;100.00;101258.56;5092160;28;20243;-80
2022/03/28 00:34:35;;;;;;;21.50;6.38;;;10.30;99.90;;;9.73;100.00;101258.41;5087762;28;20348;-80
2022/03/28 00:37:04;;;;;;;23.75;6.18;;;10.10;99.90;;;9.70;100.00;101262.72;5086633;28;20209;-79
2022/03/28 00:39:32;;;;;;;10.65;3.20;;;10.10;99.90;;;9.71;100.00;101283.00;5079151;28;20198;-80
2022/03/28 00:42:00;;;;;;;16.15;4.63;;;10.00;99.90;;;9.63;100.00;101278.41;5086895;28;20664;-80
2022/03/28 00:44:32;;;;;;;14.27;4.30;;;10.00;99.90;;;9.58;100.00;101287.06;5088287;28;20229;-80
2022/03/28 00:47:00;;;;;;;13.20;3.22;;;9.90;99.90;;;9.56;100.00;101287.00;5091902;28;20201;-79
2022/03/28 00:49:29;;;;;;;13.10;3.72;;;9.90;99.90;;;9.49;100.00;101281.53;5092014;28;20217;-80
2022/03/28 00:51:58;;;;;;;14.45;3.92;;;9.80;99.90;;;9.55;100.00;101295.78;5085352;28;20236;-80
2022/03/28 00:54:26;;;;;;;17.88;4.18;;;9.70;99.90;;;9.59;100.00;101288.84;5082227;28;20217;-80
2022/03/28 00:56:55;;;;;;;10.18;3.10;;;9.70;99.90;;;9.29;100.00;101270.44;5068465;28;20205;-80
2022/03/28 00:59:23;;;;;;;4.53;2.58;;;9.70;99.90;;;9.04;100.00;101271.47;5087614;28;20205;-79
2022/03/28 01:01:50;;;;;;;8.95;4.25;;;9.60;99.90;;;9.06;100.00;101287.31;5091167;28;20214;-79
2022/03/28 01:04:19;;;;;;;7.57;3.83;;;9.50;99.90;;;8.93;100.00;101276.44;5091598;28;20230;-79
2022/03/28 01:06:47;;;;;;;10.43;4.88;;;9.40;99.90;;;9.02;100.00;101296.91;5088000;28;20197;-80
2022/03/28 01:09:15;;;;;;;14.77;5.60;;;9.30;99.90;;;9.06;100.00;101297.88;5087519;28;20216;-80
2022/03/28 01:11:45;;;;;;;12.77;5.68;;;;;;;8.96;100.00;101283.53;5090368;28;20237;-80
2022/03/28 01:14:13;;;;;;;9.20;4.70;;;;;;;8.91;100.00;101283.41;5083371;28;20237;-80
2022/03/28 01:19:28;;;;;;;11.85;6.68;;;9.10;99.90;;;8.53;100.00;101270.81;5088372;28;20209;-80
2022/03/28 01:21:56;;;;;;;9.00;6.13;;;9.10;99.90;;;8.33;100.00;101268.47;5081947;28;20202;-80
2022/03/28 01:24:24;;;;;;;8.13;6.22;;;8.90;99.90;;;8.36;100.00;101272.94;5070566;28;20245;-80
2022/03/28 01:26:53;;;;;;;11.90;7.93;;;8.80;99.90;;;8.22;100.00;101275.09;5068827;28;20206;-80
2022/03/28 01:29:21;;;;;;;13.05;11.05;;;8.70;99.90;;;8.34;100.00;101293.97;5066051;28;20206;-80
2022/03/28 01:31:53;;;;;;;10.88;9.68;;;8.70;99.90;;;8.34;100.00;101293.06;5071082;28;20217;-80
2022/03/28 01:34:21;;;;;;;14.75;13.32;;;8.60;99.90;;;8.27;100.00;101285.78;5063424;28;20230;-80
2022/03/28 01:36:49;;;;;;;11.57;10.55;;;8.60;99.90;;;7.95;100.00;101276.84;5067646;28;20207;-80
2022/03/28 01:39:18;;;;;;;13.20;12.13;;;8.40;99.90;;;7.92;100.00;101282.91;5071118;28;20209;-80
2022/03/28 01:41:46;;;;;;;8.27;7.57;;;8.50;99.90;;;8.00;100.00;101293.69;5074377;28;20206;-80
2022/03/28 01:44:15;;;;;;;10.52;8.23;;;8.40;99.90;;;7.80;100.00;101279.88;5062114;28;20225;-80
2022/03/28 01:46:46;;;;;;;21.02;7.55;;;8.30;99.90;;;7.81;100.00;101286.91;5071446;28;20202;-81
2022/03/28 01:49:19;;;;;;;11.45;8.40;;;8.20;99.90;;;7.79;100.00;101293.84;5069421;28;20670;-81
2022/03/28 01:51:49;;;;;;;15.65;7.70;;;8.20;99.90;;;7.74;100.00;101297.16;5071305;28;20225;-80
2022/03/28 01:54:18;;;;;;;12.43;8.63;;;8.20;99.90;;;7.68;100.00;101306.63;5071067;28;20217;-81
2022/03/28 01:56:46;;;;;;;21.15;12.50;;;8.20;99.90;;;7.75;100.00;101328.81;5071149;28;20211;-81
2022/03/28 01:59:14;;;;;;;12.52;11.40;;;8.20;99.90;;;7.66;100.00;101313.59;5075474;28;20206;-83
2022/03/28 02:01:42;;;;;;;13.77;12.32;;;8.10;99.90;;;7.67;100.00;101312.75;5091638;28;20217;-83
2022/03/28 02:04:10;;;;;;;15.98;14.77;;;8.10;99.90;;;7.90;100.00;101354.81;5076087;28;20241;-81
2022/03/28 02:06:39;;;;;;;18.67;16.88;;;;;;;7.91;100.00;101354.84;5075387;28;20202;-80
2022/03/28 02:09:07;;;;;;;16.55;14.68;;;8.10;99.90;;;7.75;100.00;101331.44;5070277;28;20203;-80
2022/03/28 02:11:35;;;;;;;17.48;15.77;;;8.10;99.90;;;7.48;100.00;101307.69;5075383;28;20229;-80
2022/03/28 02:14:03;;;;;;;16.88;15.38;;;;;;;7.25;100.00;101295.44;5068536;28;20226;-80
2022/03/28 02:16:31;;;;;;;14.57;13.50;;;;;;;7.17;100.00;101291.63;5074848;28;20206;-80
2022/03/28 02:18:59;;;;;;;18.75;17.58;;;;;;;7.10;100.00;101290.53;5074325;28;20202;-80
2022/03/28 02:21:28;;;;;;;20.52;18.98;;;;;;;7.05;100.00;101302.59;5071478;28;20206;-80
2022/03/28 02:23:56;;;;;;;34.15;32.42;;;;;;;7.28;100.00;101332.38;5068071;28;20218;-80
2022/03/28 02:26:24;;;;;;;38.50;35.90;;;;;;;7.10;100.00;101337.88;5061907;28;20214;-80
2022/03/28 02:28:52;;;;;;;34.15;31.60;;;;;;;7.05;100.00;101345.59;5063623;28;20210;-80
2022/03/28 02:31:21;;;;;;;35.30;32.67;;;7.50;99.90;;;7.02;100.00;101352.47;5068050;28;20222;-81
2022/03/28 02:33:49;;;;;;;23.77;22.35;;;;;;;7.00;100.00;101365.56;5064025;28;20226;-80
2022/03/28 02:36:17;;;;;;;34.83;32.30;;;;;;;6.96;100.00;101352.22;5155428;22;20236;-75
2022/03/28 02:38:45;;;;;;;25.25;24.02;;;;;;;7.11;100.00;101381.75;5031399;28;20200;-76
2022/03/28 02:41:13;;;;;;;24.13;22.80;;;7.40;99.90;;;6.86;100.00;101374.66;5026434;28;20207;-75
2022/03/28 02:43:42;;;;;;;25.88;23.67;;;;;;;6.81;100.00;101367.41;5013411;28;20235;-76
2022/03/28 02:46:10;;;;;;;25.67;24.35;;;;;;;6.81;100.00;101389.34;5029396;28;20203;-76
2022/03/28 02:48:38;;;;;;;24.50;23.20;;;7.20;99.90;;;6.98;100.00;101406.69;5029667;28;20214;-76
2022/03/28 02:51:06;;;;;;;26.73;24.98;;;7.20;99.90;;;6.80;100.00;101382.28;5024486;28;20569;-74
2022/03/28 02:53:34;;;;;;;27.33;25.83;;;7.20;99.90;;;6.62;100.00;101369.31;5028916;28;20226;-74
2022/03/28 02:56:02;;;;;;;23.77;21.92;;;7.10;99.90;;;6.51;100.00;101356.59;5027017;28;20210;-73
2022/03/28 02:58:30;;;;;;;20.05;18.40;;;7.10;99.90;;;6.52;100.00;101363.63;5025335;28;20204;-73
2022/03/28 03:00:59;;;;;;;20.70;18.88;;;;;;;6.59;100.00;101386.69;5023302;28;20195;-74
2022/03/28 03:03:27;;;;;;;26.35;24.48;;;7.00;99.90;;;6.73;100.00;101415.34;5024368;28;20235;-74
2022/03/28 03:05:54;;;;;;;23.27;21.45;;;7.00;99.90;;;6.58;100.00;101398.06;5028639;28;20210;-74
2022/03/28 03:08:22;;;;;;;18.98;17.75;;;7.00;99.90;;;6.38;100.00;101374.47;5029324;28;20206;-73
2022/03/28 03:10:51;;;;;;;19.73;18.48;;;6.90;99.90;;;6.58;100.00;101400.69;5026034;28;20215;-74
2022/03/28 03:13:19;;;;;;;21.40;19.98;;;6.80;99.90;;;6.62;100.00;101421.91;5025751;28;20228;-73
2022/03/28 03:15:47;;;;;;;22.65;21.15;;;;;;;6.71;100.00;101435.41;5026369;28;20199;-74
2022/03/28 03:18:15;;;;;;;25.85;24.20;;;6.90;99.90;;;6.57;100.00;101420.81;5027613;28;20214;-73
2022/03/28 03:20:43;;;;;;;29.95;27.13;;;;;;;6.43;100.00;101417.59;5025452;28;20703;-73
2022/03/28 03:23:11;;;;;;;31.23;29.02;;;6.80;99.90;;;6.45;100.00;101416.75;5028855;28;20214;-73
2022/03/28 03:25:39;;;;;;;22.08;20.65;;;;;;;6.52;100.00;101416.19;5029870;28;20210;-74
2022/03/28 03:28:07;;;;;;;21.60;19.60;;;6.70;99.90;;;6.40;100.00;101411.31;5022429;28;20207;-74
2022/03/28 03:30:35;;;;;;;20.83;19.25;;;6.70;99.90;;;6.22;100.00;101405.28;5026227;28;20295;-73
2022/03/28 03:33:03;;;;;;;22.25;19.90;;;6.70;99.90;;;6.22;100.00;101411.44;5026539;28;20231;-73
2022/03/28 03:35:31;;;;;;;19.50;17.70;;;6.70;99.90;;;6.26;100.00;101423.88;5023476;28;20215;-75
2022/03/28 03:37:59;;;;;;;26.73;22.70;;;6.60;99.90;;;6.32;100.00;101434.63;5026573;28;20215;-74
2022/03/28 03:40:27;;;;;;;13.90;12.70;;;6.60;99.90;;;6.29;100.00;101438.84;5028311;28;20207;-73
2022/03/28 03:42:55;;;;;;;12.93;12.05;;;6.60;99.90;;;6.24;100.00;101435.13;5023953;28;20207;-74
2022/03/28 03:45:23;;;;;;;15.90;14.57;;;6.60;99.90;;;5.98;100.00;101420.91;5032159;28;20227;-74
2022/03/28 03:47:51;;;;;;;16.55;15.38;;;;;;;5.92;100.00;101431.13;5043265;28;20208;-73
2022/03/28 03:50:19;;;;;;;20.27;18.77;;;6.40;99.90;;;5.82;100.00;101437.69;5022604;28;20203;-74
2022/03/28 03:52:50;;;;;;;15.85;14.38;;;;;;;5.90;100.00;101451.16;5021629;28;20215;-73
2022/03/28 03:55:18;;;;;;;16.20;14.90;;;6.20;99.90;;;6.17;100.00;101483.88;5027232;28;20223;-74
2022/03/28 03:57:46;;;;;;;16.60;14.98;;;6.30;99.90;;;5.99;100.00;101475.22;5020901;28;20223;-74
2022/03/28 04:00:15;;;;;;;18.30;16.60;;;6.30;99.90;;;5.77;100.00;101439.19;5023491;28;20207;-74
2022/03/28 04:02:43;;;;;;;16.35;15.23;;;6.30;99.90;;;5.82;100.00;101453.44;5027454;28;20203;-74
2022/03/28 04:05:12;;;;;;;16.42;14.95;;;6.20;99.90;;;5.71;100.00;101454.69;5024010;28;20219;-74
2022/03/28 04:07:40;;;;;;;17.27;15.95;;;6.20;99.90;;;5.60;100.00;101448.94;5029304;28;20207;-74
2022/03/28 04:10:08;;;;;;;17.48;16.00;;;6.10;99.90;;;5.49;100.00;101449.28;5031809;28;20206;-74
2022/03/28 04:12:37;;;;;;;15.48;14.10;;;6.00;99.90;;;5.39;100.00;101456.75;5032208;28;20231;-75
2022/03/28 04:15:06;;;;;;;11.55;10.38;;;5.90;99.90;;;5.28;100.00;101471.09;5031311;28;20214;-76
2022/03/28 04:17:45;;;;;;;14.70;11.95;;;5.80;99.90;;;5.43;100.00;101510.25;5030047;28;20571;-74
2022/03/28 04:20:15;;;;;;;15.63;13.73;;;5.70;99.90;;;5.57;100.00;101521.38;5027599;28;20203;-75
2022/03/28 04:22:45;;;;;;;14.57;13.05;;;5.80;99.90;;;5.67;100.00;101526.22;5018941;28;20215;-75
2022/03/28 04:25:15;;;;;;;13.02;11.82;;;5.80;99.90;;;5.63;100.00;101524.28;5023830;28;20686;-77
2022/03/28 04:27:43;;;;;;;18.92;16.38;;;5.80;99.90;;;5.53;100.00;101517.72;5028165;28;20199;-77
2022/03/28 04:30:12;;;;;;;22.10;16.25;;;5.90;99.90;;;5.45;100.00;101517.34;5028641;28;20214;-75
2022/03/28 04:32:41;;;;;;;18.10;14.75;;;5.80;99.90;;;5.43;100.00;101533.84;5043988;28;20231;-79
2022/03/28 04:35:12;;;;;;;18.15;14.27;;;5.90;99.90;;;5.52;100.00;101543.88;5029166;28;20223;-77
2022/03/28 04:37:42;;;;;;;16.50;13.32;;;5.80;99.90;;;5.54;100.00;101548.38;5028229;28;20594;-77
2022/03/28 04:40:14;;;;;;;14.65;13.20;;;5.80;99.90;;;5.59;100.00;101545.97;5029433;28;20219;-75
2022/03/28 04:42:45;;;;;;;18.80;13.82;;;5.70;99.90;;;5.52;100.00;101542.16;5026726;28;20599;-75
2022/03/28 04:45:14;;;;;;;18.23;14.73;;;5.70;99.90;;;5.51;100.00;101552.59;5028484;28;20226;-76
2022/03/28 04:47:42;;;;;;;19.15;13.18;;;5.70;99.90;;;5.36;100.00;101537.91;5029006;28;20210;-77
2022/03/28 04:50:10;;;;;;;20.40;13.35;;;5.70;99.90;;;5.23;100.00;101529.38;5025619;28;20242;-76
2022/03/28 04:52:39;;;;;;;24.15;15.00;;;;;;;5.28;100.00;101533.13;5019230;28;20230;-78
2022/03/28 04:55:07;;;;;;;16.05;11.88;;;5.60;99.90;;;5.30;100.00;101542.88;5027140;28;20231;-78
2022/03/28 04:57:35;;;;;;;13.43;12.30;;;5.50;99.90;;;5.10;100.00;101533.13;5031494;28;20208;-78
2022/03/28 05:00:06;;;;;;;28.45;17.60;;;5.70;99.90;;;5.19;100.00;101538.81;5034814;28;20203;-78
2022/03/28 05:02:35;;;;;;;13.18;12.25;;;5.40;99.90;;;5.12;100.00;101547.19;5036036;28;20200;-78
2022/03/28 05:05:04;;;;;;;18.85;14.77;;;5.40;99.90;;;5.04;100.00;101536.34;5034444;28;20248;-78
2022/03/28 05:07:32;;;;;;;16.10;14.75;;;5.30;99.90;;;5.10;100.00;101556.72;5033575;28;20208;-79
2022/03/28 05:10:01;;;;;;;25.38;19.17;;;5.30;99.90;;;5.09;100.00;101547.03;5035204;28;20568;-79
2022/03/28 05:12:29;;;;;;;16.52;15.50;;;5.30;99.90;;;5.20;100.00;101566.84;5035405;28;20204;-77
2022/03/28 05:14:57;;;;;;;18.05;17.10;;;;;;;5.30;100.00;101562.97;5034497;28;20238;-76
2022/03/28 05:17:31;;;;;;;25.48;20.08;;;5.40;99.90;;;5.15;100.00;101543.00;5031985;28;20207;-77
2022/03/28 05:20:00;;;;;;;21.38;20.15;;;5.30;99.90;;;5.24;100.00;101553.06;5035097;28;20211;-76
2022/03/28 05:22:28;;;;;;;22.52;20.98;;;5.30;99.90;;;5.01;100.00;101545.78;5030992;28;20210;-76
2022/03/28 05:24:57;;;;;;;22.90;21.10;;;5.30;99.90;;;5.00;100.00;101547.50;5029215;28;20231;-76
2022/03/28 05:27:26;;;;;;;24.25;21.70;;;;;;;5.09;100.00;101566.31;5031635;28;20218;-75
2022/03/28 05:29:53;;;;;;;13.73;12.80;;;5.20;99.90;;;5.01;100.00;101572.91;5032364;28;20682;-76
2022/03/28 05:32:21;;;;;;;22.20;20.00;;;5.20;99.90;;;4.99;100.00;101582.41;5026752;28;20218;-75
2022/03/28 05:34:49;;;;;;;16.15;14.95;;;5.20;99.90;;;4.92;100.00;101595.13;5038050;28;20231;-76
2022/03/28 05:37:18;;;;;;;25.20;18.27;;;;;;;4.99;100.00;101605.09;5020082;28;20220;-76
2022/03/28 05:39:47;;;;;;;14.63;13.18;;;5.20;99.90;;;5.11;100.00;101619.72;5012492;28;20207;-76
2022/03/28 05:42:17;;;;;;;20.10;18.58;;;5.80;99.90;;;5.04;100.00;101611.47;5030218;28;20211;-71
2022/03/28 05:44:45;;;;;;;10.45;9.85;;;5.30;99.90;;;5.13;100.00;101618.06;5014592;28;20239;-73
2022/03/28 05:47:13;;;;;;;28.85;24.35;;;5.30;99.90;;;5.11;100.00;101608.31;5029999;28;20214;-74
2022/03/28 05:49:41;;;;;;;40.33;37.90;;;5.20;99.90;;;5.15;100.00;101610.28;5021988;28;20219;-75
2022/03/28 05:52:09;;;;;;;11.43;10.68;;;5.20;99.90;;;5.06;100.00;101613.34;5030038;28;20561;-73
2022/03/28 05:54:37;;;;;;;14.93;13.38;;;5.20;99.90;;;5.14;100.00;101627.75;5019774;28;20235;-74
2022/03/28 05:57:05;;;;;;;27.60;24.83;;;5.20;99.90;;;5.08;100.00;101634.41;5031070;28;20211;-74
2022/03/28 05:59:34;;;;;;;26.67;17.10;;;5.20;99.90;;;5.11;100.00;101651.19;5030655;28;20345;-74
2022/03/28 06:02:03;;;;;;;17.58;15.77;;;5.20;99.90;;;5.20;100.00;101650.78;5030893;28;20210;-75
2022/03/28 06:04:32;;;;;;;19.75;17.65;;;5.20;99.90;;;5.19;100.00;101653.28;5031454;28;20223;-77
2022/03/28 06:07:00;;;;;;;20.10;18.33;;;5.20;99.90;;;5.23;100.00;101645.69;5030244;28;20207;-75
2022/03/28 06:09:28;;;;;;;19.27;14.38;;;5.10;99.90;;;5.15;100.00;101666.25;5030669;28;20207;-73
2022/03/28 06:11:56;;;;;;;18.42;16.45;;;5.30;99.90;;;5.27;100.00;101668.63;5029509;28;20210;-73
2022/03/28 06:14:24;;;;;;;19.10;17.30;;;5.30;99.90;;;5.38;100.00;101664.81;5027803;28;20231;-74
2022/03/28 06:16:52;;;;;;;24.05;21.75;;;5.30;99.90;;;5.35;100.00;101672.53;5015123;28;20202;-74
2022/03/28 06:19:20;;;;;;;22.90;20.38;;;5.40;99.90;;;5.45;100.00;101677.41;5031382;28;20200;-73
2022/03/28 06:21:48;;;;;;;18.52;16.08;;;5.40;99.90;;;5.46;100.00;101676.56;5031778;28;20199;-75
2022/03/28 06:24:17;;;;;;;24.15;17.77;;;5.50;99.90;;;5.59;100.00;101703.41;5030294;28;20235;-74
2022/03/28 06:26:45;;;;;;;18.85;16.25;;;5.50;99.90;;;5.70;100.00;101703.13;5030526;28;20215;-73
2022/03/28 06:29:13;;;;;;;17.35;13.60;;;;;;;5.75;100.00;101700.72;5029343;28;20249;-74
2022/03/28 06:31:41;;;;;;;30.73;14.70;;;5.60;99.90;;;5.81;100.00;101697.50;5030203;28;20647;-74
2022/03/28 06:34:14;;;;;;;16.92;11.52;;;5.70;99.90;;;5.86;100.00;101710.00;5031406;28;20231;-74
2022/03/28 06:36:44;;;;;;;22.70;10.77;;;5.70;99.90;;;5.92;100.00;101715.59;5029699;28;20207;-74
2022/03/28 06:39:13;;;;;;;12.65;8.93;;;5.80;99.90;;;6.00;100.00;101721.22;5026915;28;20215;-75
2022/03/28 06:41:42;;;;;;;16.75;10.40;;;5.80;99.90;;;6.04;100.00;101723.16;5030426;28;20211;-74
2022/03/28 06:44:13;;;;;;;16.83;10.40;;;5.80;99.90;;;6.19;100.00;101731.75;5030926;28;20231;-75
2022/03/28 06:46:45;;;;;;;30.55;27.98;;;5.90;99.90;;;6.37;100.00;101742.22;5029282;28;20207;-75
2022/03/28 06:49:13;;;;;;;29.85;27.48;;;6.00;99.90;;;6.38;100.00;101734.41;5011949;28;20218;-76
2022/03/28 06:51:41;;;;;;;20.42;19.13;;;6.10;99.90;;;6.45;100.00;101732.06;5031509;28;20211;-75
2022/03/28 06:54:10;;;;;;;18.92;17.73;;;6.20;99.90;;;6.57;100.00;101743.19;5030099;28;20227;-74
2022/03/28 06:56:38;;;;;;;23.42;21.63;;;6.20;99.90;;;6.76;100.00;101755.44;5030098;28;20203;-74
2022/03/28 06:59:08;;;;;;;17.80;16.55;;;;;;;6.83;100.00;101749.63;5025598;28;20206;-73
2022/03/28 07:01:36;;;;;;;19.77;18.48;;;6.50;99.90;;;6.93;100.00;101758.00;5026217;28;20211;-75
2022/03/28 07:04:05;;;;;;;20.10;18.73;;;6.50;99.90;;;7.00;100.00;101757.44;5028844;28;20238;-74
2022/03/28 07:06:33;;;;;;;24.70;22.95;;;6.70;99.90;;;7.11;100.00;101752.66;5025487;28;20203;-73
2022/03/28 07:09:04;;;;;;;20.75;19.55;;;6.80;99.90;;;7.25;100.00;101753.25;5030938;28;20207;-73
2022/03/28 07:11:33;;;;;;;21.20;19.35;;;6.90;99.90;;;7.33;100.00;101743.97;5025851;28;20210;-77
2022/03/28 07:14:00;;;;;;;21.48;19.70;;;6.90;99.90;;;7.48;100.00;101751.59;5022744;28;20244;-75
2022/03/28 07:16:28;;;;;;;11.40;10.60;;;7.10;99.90;;;7.60;100.00;101749.50;5032238;28;20206;-75
2022/03/28 07:18:56;;;;;;;26.05;24.60;;;7.10;99.90;;;7.69;100.00;101732.34;5027935;28;20211;-74
2022/03/28 07:21:25;;;;;;;14.10;12.90;;;;;;;8.00;100.00;101737.16;5041397;28;20196;-74
2022/03/28 07:23:54;;;;;;;11.05;9.73;;;7.30;99.90;;;8.18;100.00;101728.19;5017131;28;20215;-75
2022/03/28 07:26:23;;;;;;;31.35;29.67;;;;;;;8.30;100.00;101711.09;5012532;28;20196;-74
2022/03/28 07:28:50;;;;;;;34.03;32.33;;;7.60;99.90;;;8.42;100.00;101699.25;5025445;28;20203;-75
2022/03/28 07:31:18;;;;;;;35.75;33.35;;;7.80;99.90;;;8.53;100.00;101687.38;5026038;28;20207;-75
2022/03/28 07:33:46;;;;;;;35.58;33.38;;;7.90;99.90;;;8.57;100.00;101665.56;5030416;28;20255;-75
2022/03/28 07:36:15;;;;;;;35.03;33.17;;;;;;;8.77;100.00;101668.91;5029246;28;20578;-75
2022/03/28 07:38:43;;;;;;;37.83;22.27;;;8.10;99.90;;;8.86;100.00;101653.41;5014652;28;20204;-75
2022/03/28 07:41:11;;;;;;;33.33;30.48;;;8.30;99.90;;;8.99;100.00;101638.06;5030124;28;20554;-75
2022/03/28 07:43:39;;;;;;;21.35;19.80;;;8.40;99.90;;;9.23;100.00;101616.91;5025798;28;20585;-75
2022/03/28 07:46:10;;;;;;;23.85;22.13;;;8.40;99.90;;;9.28;100.00;101593.31;5025902;28;20211;-75
2022/03/28 07:48:38;;;;;;;10.35;8.25;;;8.50;99.90;;;9.54;100.00;101588.88;5030093;28;20203;-75
2022/03/28 07:51:07;;;;;;;14.60;10.48;;;8.60;99.90;;;9.63;100.00;101570.66;5025341;28;20207;-75
2022/03/28 07:53:38;;;;;;;29.02;27.25;;;;;;;9.88;100.00;101544.13;4991992;28;20223;-75
2022/03/28 07:56:06;;;;;;;28.65;26.55;;;8.90;99.90;;;9.94;100.00;101507.31;5023497;28;20206;-75
2022/03/28 07:58:34;;;;;;;32.63;30.13;;;9.00;99.90;;;10.05;100.00;101489.13;5030045;28;20215;-76
2022/03/28 08:01:02;;;;;;;23.88;12.38;;;9.20;99.90;;;10.03;100.00;101469.69;5025520;28;20222;-75
2022/03/28 08:03:30;;;;;;;20.10;12.52;;;9.30;99.90;;;10.07;100.00;101457.44;5028495;28;20219;-77
2022/03/28 08:05:58;;;;;;;12.27;10.93;;;9.40;99.90;;;10.36;100.00;101459.16;5016963;28;20210;-75
2022/03/28 08:08:26;;;;;;;16.38;12.02;;;9.50;99.90;;;10.30;100.00;101429.00;5021880;28;20196;-75
2022/03/28 08:10:55;;;;;;;37.15;34.25;;;9.70;99.90;;;10.37;100.00;101426.56;5027352;28;20203;-75
2022/03/28 08:13:23;;;;;;;18.02;12.73;;;9.80;99.90;;;10.59;100.00;101425.41;5028889;28;20223;-75
2022/03/28 08:15:51;;;;;;;18.48;10.82;;;9.80;99.90;;;10.57;100.00;101408.59;5029334;28;20216;-75
2022/03/28 08:18:19;;;;;;;17.48;8.52;;;10.00;99.90;;;10.82;100.00;101418.91;5026146;28;20199;-75
2022/03/28 08:20:47;;;;;;;18.55;10.57;;;10.10;99.90;;;11.12;100.00;101399.28;5028495;28;20207;-76
2022/03/28 08:23:16;;;;;;;19.20;10.55;;;10.40;99.90;;;11.20;100.00;101393.31;5002820;28;20580;-77
2022/03/28 08:25:44;;;;;;;13.60;11.85;;;;;;;11.16;100.00;101366.72;5027313;28;20218;-76
2022/03/28 08:28:12;;;;;;;39.63;37.22;;;10.50;99.90;;;11.33;100.00;101359.13;5028289;28;20204;-76
2022/03/28 08:30:40;;;;;;;38.35;35.35;;;10.70;99.90;;;11.51;100.00;101355.09;5013778;28;20214;-75
2022/03/28 08:33:09;;;;;;;37.97;34.70;;;10.80;99.90;;;11.75;100.00;101354.72;5030744;28;20196;-76
2022/03/28 08:35:37;;;;;;;70.22;64.75;;;11.10;99.90;;;11.94;100.00;101333.88;5045282;22;20953;-80
2022/03/28 08:38:06;;;;;;;29.58;27.05;;;11.20;99.90;;;11.86;100.00;101301.94;5068224;28;20206;-80
2022/03/28 08:40:34;;;;;;;33.25;30.85;;;11.30;99.90;;;11.84;100.00;101286.00;5073479;28;20197;-80
2022/03/28 08:43:04;;;;;;;26.98;24.85;;;;;;;12.24;100.00;101297.28;5076298;28;20209;-79
2022/03/28 08:45:32;;;;;;;63.17;59.60;;;11.00;99.90;;;12.43;100.00;101282.53;5069501;28;20226;-79
2022/03/28 08:48:01;;;;;;;98.97;94.22;;;;;;;12.55;100.00;101276.50;5056940;28;20211;-79
2022/03/28 08:50:45;;;;;;;79.10;74.95;;;11.80;99.90;;;12.56;100.00;101254.41;5057247;28;20194;-79
2022/03/28 08:53:14;;;;;;;126.07;120.03;;;;;;;12.54;100.00;101234.94;5055044;28;20218;-79
2022/03/28 08:55:45;;;;;;;81.03;76.65;;;12.00;99.90;;;12.72;100.00;101236.06;5067165;28;20257;-78
2022/03/28 08:58:14;;;;;;;70.85;66.95;;;12.10;99.90;;;12.88;100.00;101207.06;5054122;28;20207;-78
2022/03/28 09:00:42;;;;;;;119.85;114.10;;;12.30;99.90;;;12.99;100.00;101186.84;5057970;28;20206;-78
2022/03/28 09:03:11;;;;;;;65.55;61.72;;;;;;;13.19;100.00;101174.72;5058937;28;20199;-78
2022/03/28 09:05:40;;;;;;;55.35;52.10;;;12.60;99.90;;;13.26;100.00;101154.44;5054655;28;20213;-79
2022/03/28 09:08:09;;;;;;;56.40;52.92;;;12.80;99.90;;;13.39;100.00;101137.72;5052714;28;20230;-79
2022/03/28 09:10:46;;;;;;;64.65;60.25;;;12.90;99.90;;;13.73;100.00;101137.09;5052808;28;20201;-78
2022/03/28 09:13:19;;;;;;;72.82;68.38;;;13.10;99.90;;;13.82;100.00;101099.06;5048609;28;20225;-79
2022/03/28 09:16:01;;;;;;;78.45;75.13;;;13.20;99.90;;;13.94;100.00;101082.28;5057726;28;20226;-79
2022/03/28 09:18:34;;;;;;;92.25;87.45;;;13.40;99.90;;;14.00;100.00;101055.75;5050413;28;20214;-79
2022/03/28 09:21:11;;;;;;;112.55;106.90;;;13.60;99.90;;;14.14;100.00;101046.06;5069501;28;20210;-79
2022/03/28 09:23:46;;;;;;;90.70;86.85;;;14.00;99.90;;;14.64;100.00;101072.91;5054610;28;20229;-79
2022/03/28 09:26:23;;;;;;;133.88;127.70;;;14.10;99.90;;;14.73;100.00;101026.75;5049377;28;20205;-78
2022/03/28 09:29:00;;;;;;;128.18;122.30;;;14.20;99.90;;;14.90;99.71;101010.81;5055150;28;20213;-78
2022/03/28 09:31:37;;;;;;;137.40;130.50;;;14.40;99.90;;;15.24;99.57;101014.34;5055843;28;20194;-79
2022/03/28 09:34:12;;;;;;;90.40;85.85;;;14.50;99.90;;;15.28;97.88;100981.47;5052438;28;20248;-79
2022/03/28 09:36:53;;;;;;;127.10;121.82;;;14.80;99.90;;;15.26;95.21;100948.63;5058422;28;20709;-81
2022/03/28 09:39:24;;;;;;;138.80;133.10;;;14.80;99.90;;;15.23;92.64;100904.22;5060743;28;20205;-80
2022/03/28 09:42:11;;;;;;;81.57;77.75;;;14.90;99.90;;;15.36;91.50;100886.41;5060039;28;20203;-83
2022/03/28 09:44:42;;;;;;;102.88;97.95;;;;;;;15.64;91.27;100873.94;5058411;28;20234;-80
2022/03/28 09:47:22;;;;;;;132.88;126.70;;;15.40;99.90;;;15.99;92.22;100893.31;5059297;28;20202;-80
2022/03/28 09:49:57;;;;;;;93.40;89.57;;;15.50;99.90;;;15.77;89.85;100835.63;5072565;28;20213;-81
2022/03/28 09:52:29;;;;;;;94.47;90.78;;;15.60;99.90;;;15.73;89.37;100803.66;5056853;28;20206;-81
2022/03/28 09:55:01;;;;;;;100.50;95.45;;;15.90;99.90;;;16.22;89.26;100836.22;5054039;28;20219;-81
2022/03/28 09:57:34;;;;;;;110.35;104.78;;;16.00;99.90;;;16.01;87.23;100765.25;5055626;28;20229;-80
2022/03/28 10:00:12;;;;;;;125.88;120.22;;;16.20;99.90;;;16.46;86.23;100784.41;5061802;28;20662;-77
2022/03/28 10:02:40;;;;;;;158.45;152.10;;;;;;;16.60;87.81;100786.06;5054328;28;20207;-81
2022/03/28 10:05:09;;;;;;;190.38;182.23;;;;;;;16.89;87.44;100788.44;5050202;28;20219;-81
2022/03/28 10:07:37;;;;;;;136.93;131.05;;;;;;;17.03;87.69;100793.66;5057555;28;20229;-82
2022/03/28 10:10:06;;;;;;;161.55;154.75;;;17.00;99.90;;;16.72;83.68;100686.25;5059191;28;20209;-82
2022/03/28 10:12:35;;;;;;;187.07;178.52;;;;;;;16.58;82.81;100646.34;5067539;28;20213;-82
2022/03/28 10:15:04;;;;;;;151.70;145.32;;;17.20;99.90;;;17.00;84.49;100704.66;5057481;28;20249;-82
2022/03/28 10:17:32;;;;;;;137.65;131.85;;;;;;;17.01;82.32;100632.50;5065985;28;20209;-81
2022/03/28 10:20:02;;;;;;;128.82;123.60;;;;;;;16.95;84.52;100646.81;5061840;28;20217;-81
2022/03/28 10:22:53;;;;;;;139.55;132.90;;;17.90;99.90;;;17.71;86.18;100729.50;5046021;28;20217;-83
2022/03/28 10:25:24;;;;;;;146.30;139.35;;;18.00;99.90;;;17.56;85.24;100698.50;5054387;28;20674;-81
2022/03/28 10:27:53;;;;;;;154.85;147.90;;;18.20;99.90;;;17.75;84.04;100683.06;5049877;28;20211;-81